sensor_id;sensor_type;location;lat;lon;timestamp;temperature;humidity
14521;DHT22;7347;50.844;4.490;2024-02-28T08:54:47;7.70;99.90
14521;DHT22;7347;50.844;4.490;2024-02-28T08:57:15;7.70;99.90
14521;DHT22;7347;50.844;4.490;2024-02-28T08:59:42;7.70;99.90
14521;DHT22;7347;50.844;4.490;2024-02-28T09:02:08;7.90;99.90
14521;DHT22;7347;50.844;4.490;2024-02-28T09:04:36;7.90;99.90
14521;DHT22;7347;50.844;4.490;2024-02-28T09:07:03;7.90;99.90
14521;DHT22;7347;50.844;4.490;2024-02-28T09:09:30;7.90;99.90
14521;DHT22;7347;50.844;4.490;2024-02-28T09:12:01;7.80;99.90
14521;DHT22;7347;50.844;4.490;2024-02-28T09:14:28;7.90;99.90
14521;DHT22;7347;50.844;4.490;2024-02-28T09:16:55;8.00;99.90
14521;DHT22;7347;50.844;4.490;2024-02-28T09:19:29;8.30;99.90
14521;DHT22;7347;50.844;4.490;2024-02-28T09:21:55;8.30;99.90
14521;DHT22;7347;50.844;4.490;2024-02-28T09:24:23;8.40;99.90
14521;DHT22;7347;50.844;4.490;2024-02-28T09:26:49;8.60;99.90
14521;DHT22;7347;50.844;4.490;2024-02-28T09:29:18;8.60;99.90
14521;DHT22;7347;50.844;4.490;2024-02-28T09:31:45;8.90;99.90
14521;DHT22;7347;50.844;4.490;2024-02-28T09:34:12;8.80;99.90
14521;DHT22;7347;50.844;4.490;2024-02-28T09:36:40;8.60;99.90
14521;DHT22;7347;50.844;4.490;2024-02-28T09:39:08;8.60;99.90
14521;DHT22;7347;50.844;4.490;2024-02-28T09:41:35;8.50;99.90
14521;DHT22;7347;50.844;4.490;2024-02-28T09:44:02;8.40;99.90
14521;DHT22;7347;50.844;4.490;2024-02-28T09:46:32;8.40;99.90
14521;DHT22;7347;50.844;4.490;2024-02-28T09:49:02;8.50;99.90
14521;DHT22;7347;50.844;4.490;2024-02-28T09:51:30;8.50;99.90
14521;DHT22;7347;50.844;4.490;2024-02-28T09:53:59;8.40;99.90
14521;DHT22;7347;50.844;4.490;2024-02-28T09:56:27;8.50;99.90
14521;DHT22;7347;50.844;4.490;2024-02-28T09:58:54;8.70;99.90
14521;DHT22;7347;50.844;4.490;2024-02-28T10:01:22;8.70;99.90
14521;DHT22;7347;50.844;4.490;2024-02-28T10:03:51;8.70;99.90
14521;DHT22;7347;50.844;4.490;2024-02-28T10:06:18;8.70;99.90
14521;DHT22;7347;50.844;4.490;2024-02-28T10:08:45;8.60;99.90
14521;DHT22;7347;50.844;4.490;2024-02-28T10:11:17;8.60;99.90
14521;DHT22;7347;50.844;4.490;2024-02-28T10:13:45;8.60;99.90
14521;DHT22;7347;50.844;4.490;2024-02-28T10:16:12;8.70;99.90
14521;DHT22;7347;50.844;4.490;2024-02-28T10:18:40;8.70;99.90
14521;DHT22;7347;50.844;4.490;2024-02-28T10:21:08;8.90;99.90
14521;DHT22;7347;50.844;4.490;2024-02-28T10:23:36;9.20;99.90
14521;DHT22;7347;50.844;4.490;2024-02-28T10:26:03;9.20;99.90
14521;DHT22;7347;50.844;4.490;2024-02-28T10:28:30;9.30;99.90
14521;DHT22;7347;50.844;4.490;2024-02-28T10:30:57;9.30;99.90
14521;DHT22;7347;50.844;4.490;2024-02-28T10:33:27;9.50;99.90
14521;DHT22;7347;50.844;4.490;2024-02-28T10:35:55;9.80;99.90
14521;DHT22;7347;50.844;4.490;2024-02-28T10:38:25;9.80;99.90
14521;DHT22;7347;50.844;4.490;2024-02-28T10:40:53;9.80;99.90
14521;DHT22;7347;50.844;4.490;2024-02-28T10:43:20;9.90;99.90
14521;DHT22;7347;50.844;4.490;2024-02-28T10:45:48;10.20;99.90
14521;DHT22;7347;50.844;4.490;2024-02-28T10:48:16;10.40;99.90
14521;DHT22;7347;50.844;4.490;2024-02-28T10:50:44;10.40;99.90
14521;DHT22;7347;50.844;4.490;2024-02-28T10:53:13;10.30;99.90
14521;DHT22;7347;50.844;4.490;2024-02-28T10:55:42;10.40;99.90
14521;DHT22;7347;50.844;4.490;2024-02-28T10:58:10;10.60;99.90
14521;DHT22;7347;50.844;4.490;2024-02-28T11:00:38;10.70;99.90
14521;DHT22;7347;50.844;4.490;2024-02-28T11:03:07;10.90;99.90
14521;DHT22;7347;50.844;4.490;2024-02-28T11:05:36;11.00;99.90
14521;DHT22;7347;50.844;4.490;2024-02-28T11:08:05;11.00;99.90
14521;DHT22;7347;50.844;4.490;2024-02-28T11:10:32;11.00;99.90
14521;DHT22;7347;50.844;4.490;2024-02-28T11:13:01;10.90;99.90
14521;DHT22;7347;50.844;4.490;2024-02-28T11:15:28;11.00;99.90
14521;DHT22;7347;50.844;4.490;2024-02-28T11:17:55;11.10;99.90
14521;DHT22;7347;50.844;4.490;2024-02-28T11:20:33;11.10;99.90
14521;DHT22;7347;50.844;4.490;2024-02-28T11:23:00;11.00;99.90
14521;DHT22;7347;50.844;4.490;2024-02-28T11:25:27;11.00;99.90
14521;DHT22;7347;50.844;4.490;2024-02-28T11:27:54;11.10;99.90
14521;DHT22;7347;50.844;4.490;2024-02-28T11:30:25;11.00;99.90
14521;DHT22;7347;50.844;4.490;2024-02-28T11:32:52;10.90;99.90
14521;DHT22;7347;50.844;4.490;2024-02-28T11:35:19;10.90;99.90
14521;DHT22;7347;50.844;4.490;2024-02-28T11:37:47;10.80;99.90
14521;DHT22;7347;50.844;4.490;2024-02-28T11:40:14;10.70;99.90
14521;DHT22;7347;50.844;4.490;2024-02-28T11:42:41;10.80;99.90
14521;DHT22;7347;50.844;4.490;2024-02-28T11:45:10;10.80;99.90
14521;DHT22;7347;50.844;4.490;2024-02-28T11:47:39;11.00;99.90
14521;DHT22;7347;50.844;4.490;2024-02-28T11:50:07;11.10;99.90
14521;DHT22;7347;50.844;4.490;2024-02-28T11:52:34;11.20;99.90
14521;DHT22;7347;50.844;4.490;2024-02-28T11:55:01;11.20;99.90
14521;DHT22;7347;50.844;4.490;2024-02-28T11:57:28;11.30;99.90
14521;DHT22;7347;50.844;4.490;2024-02-28T12:00:02;11.20;99.90
14521;DHT22;7347;50.844;4.490;2024-02-28T12:02:30;11.20;99.90
14521;DHT22;7347;50.844;4.490;2024-02-28T12:05:02;11.30;99.90
14521;DHT22;7347;50.844;4.490;2024-02-28T12:07:30;11.40;99.90
14521;DHT22;7347;50.844;4.490;2024-02-28T12:09:57;11.40;99.90
14521;DHT22;7347;50.844;4.490;2024-02-28T12:12:24;11.40;99.90
14521;DHT22;7347;50.844;4.490;2024-02-28T12:14:51;11.50;99.90
14521;DHT22;7347;50.844;4.490;2024-02-28T12:17:18;11.30;99.90
14521;DHT22;7347;50.844;4.490;2024-02-28T12:19:45;11.20;99.90
14521;DHT22;7347;50.844;4.490;2024-02-28T12:22:13;11.30;99.90
14521;DHT22;7347;50.844;4.490;2024-02-28T12:24:40;11.50;99.90
14521;DHT22;7347;50.844;4.490;2024-02-28T12:27:07;11.50;99.90
14521;DHT22;7347;50.844;4.490;2024-02-28T12:29:34;11.50;99.90
14521;DHT22;7347;50.844;4.490;2024-02-28T12:32:01;11.60;99.90
14521;DHT22;7347;50.844;4.490;2024-02-28T12:34:28;11.60;99.90
14521;DHT22;7347;50.844;4.490;2024-02-28T12:36:54;11.80;99.90
14521;DHT22;7347;50.844;4.490;2024-02-28T12:39:23;11.70;99.90
14521;DHT22;7347;50.844;4.490;2024-02-28T12:41:50;11.50;99.90
14521;DHT22;7347;50.844;4.490;2024-02-28T12:44:17;11.70;99.90
14521;DHT22;7347;50.844;4.490;2024-02-28T12:46:43;12.00;99.90
14521;DHT22;7347;50.844;4.490;2024-02-28T12:49:10;12.10;99.90
14521;DHT22;7347;50.844;4.490;2024-02-28T12:51:39;12.20;99.90
14521;DHT22;7347;50.844;4.490;2024-02-28T12:54:06;12.00;99.90
14521;DHT22;7347;50.844;4.490;2024-02-28T12:56:34;11.90;99.90
14521;DHT22;7347;50.844;4.490;2024-02-28T12:59:01;11.60;99.90
14521;DHT22;7347;50.844;4.490;2024-02-28T13:01:29;11.50;99.90
14521;DHT22;7347;50.844;4.490;2024-02-28T13:03:56;11.70;99.90
14521;DHT22;7347;50.844;4.490;2024-02-28T13:06:22;11.80;99.90
14521;DHT22;7347;50.844;4.490;2024-02-28T13:08:49;11.50;99.90
14521;DHT22;7347;50.844;4.490;2024-02-28T13:11:18;11.20;99.90
14521;DHT22;7347;50.844;4.490;2024-02-28T13:13:47;11.20;99.90
14521;DHT22;7347;50.844;4.490;2024-02-28T13:16:14;11.20;99.90
14521;DHT22;7347;50.844;4.490;2024-02-28T13:18:41;11.20;99.90
14521;DHT22;7347;50.844;4.490;2024-02-28T13:21:09;11.20;99.90
14521;DHT22;7347;50.844;4.490;2024-02-28T13:23:36;11.20;99.90
14521;DHT22;7347;50.844;4.490;2024-02-28T13:26:04;11.10;99.90
14521;DHT22;7347;50.844;4.490;2024-02-28T13:28:31;11.20;99.90
14521;DHT22;7347;50.844;4.490;2024-02-28T13:31:00;11.30;99.90
14521;DHT22;7347;50.844;4.490;2024-02-28T13:33:27;11.50;99.90
14521;DHT22;7347;50.844;4.490;2024-02-28T13:35:54;11.50;99.90
14521;DHT22;7347;50.844;4.490;2024-02-28T13:38:21;11.50;99.90
14521;DHT22;7347;50.844;4.490;2024-02-28T13:40:48;11.60;99.90
14521;DHT22;7347;50.844;4.490;2024-02-28T13:43:15;11.60;99.90
14521;DHT22;7347;50.844;4.490;2024-02-28T13:45:47;11.70;99.90
14521;DHT22;7347;50.844;4.490;2024-02-28T13:48:17;11.90;99.90
14521;DHT22;7347;50.844;4.490;2024-02-28T13:50:46;12.10;99.90
14521;DHT22;7347;50.844;4.490;2024-02-28T13:53:15;12.00;99.90
14521;DHT22;7347;50.844;4.490;2024-02-28T13:55:42;12.30;99.90
14521;DHT22;7347;50.844;4.490;2024-02-28T13:58:10;12.50;99.90
14521;DHT22;7347;50.844;4.490;2024-02-28T14:00:37;12.60;99.90
14521;DHT22;7347;50.844;4.490;2024-02-28T14:03:05;12.70;99.90
14521;DHT22;7347;50.844;4.490;2024-02-28T14:05:33;12.50;99.90
14521;DHT22;7347;50.844;4.490;2024-02-28T14:08:00;12.40;99.90
14521;DHT22;7347;50.844;4.490;2024-02-28T14:10:29;12.20;99.90
14521;DHT22;7347;50.844;4.490;2024-02-28T14:12:56;12.10;99.90
14521;DHT22;7347;50.844;4.490;2024-02-28T14:15:23;12.00;99.90
14521;DHT22;7347;50.844;4.490;2024-02-28T14:17:50;12.00;99.90
14521;DHT22;7347;50.844;4.490;2024-02-28T14:20:17;12.10;99.90
14521;DHT22;7347;50.844;4.490;2024-02-28T14:22:45;12.20;99.90
14521;DHT22;7347;50.844;4.490;2024-02-28T14:25:13;12.10;99.90
14521;DHT22;7347;50.844;4.490;2024-02-28T14:27:43;11.80;99.90
14521;DHT22;7347;50.844;4.490;2024-02-28T14:30:11;11.50;99.90
14521;DHT22;7347;50.844;4.490;2024-02-28T14:32:39;11.50;99.90
14521;DHT22;7347;50.844;4.490;2024-02-28T14:35:07;11.60;99.90
14521;DHT22;7347;50.844;4.490;2024-02-28T14:37:35;11.40;99.90
14521;DHT22;7347;50.844;4.490;2024-02-28T14:40:04;11.40;99.90
14521;DHT22;7347;50.844;4.490;2024-02-28T14:42:35;11.40;99.90
14521;DHT22;7347;50.844;4.490;2024-02-28T14:45:02;11.40;99.90
14521;DHT22;7347;50.844;4.490;2024-02-28T14:47:29;11.30;99.90
14521;DHT22;7347;50.844;4.490;2024-02-28T14:49:56;11.30;99.90
14521;DHT22;7347;50.844;4.490;2024-02-28T14:52:23;11.20;99.90
14521;DHT22;7347;50.844;4.490;2024-02-28T14:54:50;11.10;99.90
14521;DHT22;7347;50.844;4.490;2024-02-28T14:57:18;11.00;99.90
14521;DHT22;7347;50.844;4.490;2024-02-28T14:59:45;11.10;99.90
14521;DHT22;7347;50.844;4.490;2024-02-28T15:02:12;11.10;99.90
14521;DHT22;7347;50.844;4.490;2024-02-28T15:04:39;11.20;99.90
14521;DHT22;7347;50.844;4.490;2024-02-28T15:07:06;11.10;99.90
14521;DHT22;7347;50.844;4.490;2024-02-28T15:09:33;11.00;99.90
14521;DHT22;7347;50.844;4.490;2024-02-28T15:12:00;11.10;99.90
14521;DHT22;7347;50.844;4.490;2024-02-28T15:14:29;11.10;99.90
14521;DHT22;7347;50.844;4.490;2024-02-28T15:16:55;11.00;99.90
14521;DHT22;7347;50.844;4.490;2024-02-28T15:19:22;10.90;99.90
14521;DHT22;7347;50.844;4.490;2024-02-28T15:21:49;10.90;99.90
14521;DHT22;7347;50.844;4.490;2024-02-28T15:24:16;10.80;99.90
14521;DHT22;7347;50.844;4.490;2024-02-28T15:26:43;10.90;99.90
14521;DHT22;7347;50.844;4.490;2024-02-28T15:29:10;10.90;99.90
14521;DHT22;7347;50.844;4.490;2024-02-28T15:31:38;10.90;99.90
14521;DHT22;7347;50.844;4.490;2024-02-28T15:34:05;10.90;99.90
14521;DHT22;7347;50.844;4.490;2024-02-28T15:36:32;11.00;99.90
14521;DHT22;7347;50.844;4.490;2024-02-28T15:38:59;10.90;99.90
14521;DHT22;7347;50.844;4.490;2024-02-28T15:41:26;11.00;99.90
14521;DHT22;7347;50.844;4.490;2024-02-28T15:43:53;11.00;99.90
14521;DHT22;7347;50.844;4.490;2024-02-28T15:46:21;11.20;99.90
14521;DHT22;7347;50.844;4.490;2024-02-28T15:48:49;11.20;99.90
14521;DHT22;7347;50.844;4.490;2024-02-28T15:51:16;11.10;99.90
14521;DHT22;7347;50.844;4.490;2024-02-28T15:53:43;11.20;99.90
14521;DHT22;7347;50.844;4.490;2024-02-28T15:56:10;11.20;99.90
14521;DHT22;7347;50.844;4.490;2024-02-28T15:58:37;11.20;99.90
14521;DHT22;7347;50.844;4.490;2024-02-28T16:01:05;11.10;99.90
14521;DHT22;7347;50.844;4.490;2024-02-28T16:03:32;11.10;99.90
14521;DHT22;7347;50.844;4.490;2024-02-28T16:06:00;11.10;99.90
14521;DHT22;7347;50.844;4.490;2024-02-28T16:08:27;10.90;99.90
14521;DHT22;7347;50.844;4.490;2024-02-28T16:10:53;10.90;99.90
14521;DHT22;7347;50.844;4.490;2024-02-28T16:13:20;10.80;99.90
14521;DHT22;7347;50.844;4.490;2024-02-28T16:15:47;10.80;99.90
14521;DHT22;7347;50.844;4.490;2024-02-28T16:18:14;10.80;99.90
14521;DHT22;7347;50.844;4.490;2024-02-28T16:20:41;10.70;99.90
14521;DHT22;7347;50.844;4.490;2024-02-28T16:23:09;10.60;99.90
14521;DHT22;7347;50.844;4.490;2024-02-28T16:25:38;10.60;99.90
14521;DHT22;7347;50.844;4.490;2024-02-28T16:28:05;10.60;99.90
14521;DHT22;7347;50.844;4.490;2024-02-28T16:30:32;10.40;99.90
14521;DHT22;7347;50.844;4.490;2024-02-28T16:32:59;10.50;99.90
14521;DHT22;7347;50.844;4.490;2024-02-28T16:35:26;10.50;99.90
14521;DHT22;7347;50.844;4.490;2024-02-28T16:37:53;10.40;99.90
14521;DHT22;7347;50.844;4.490;2024-02-28T16:40:21;10.20;99.90
14521;DHT22;7347;50.844;4.490;2024-02-28T16:42:48;10.10;99.90
14521;DHT22;7347;50.844;4.490;2024-02-28T16:45:15;10.10;99.90
14521;DHT22;7347;50.844;4.490;2024-02-28T16:47:42;10.10;99.90
14521;DHT22;7347;50.844;4.490;2024-02-28T16:50:09;9.90;99.90
14521;DHT22;7347;50.844;4.490;2024-02-28T16:52:36;9.80;99.90
14521;DHT22;7347;50.844;4.490;2024-02-28T16:55:03;9.80;99.90
14521;DHT22;7347;50.844;4.490;2024-02-28T16:57:32;9.80;99.90
14521;DHT22;7347;50.844;4.490;2024-02-28T16:59:59;9.70;99.90
14521;DHT22;7347;50.844;4.490;2024-02-28T17:02:25;9.80;99.90
14521;DHT22;7347;50.844;4.490;2024-02-28T17:04:52;9.80;99.90
14521;DHT22;7347;50.844;4.490;2024-02-28T17:07:19;9.80;99.90
14521;DHT22;7347;50.844;4.490;2024-02-28T17:09:46;9.70;99.90
14521;DHT22;7347;50.844;4.490;2024-02-28T17:12:13;9.60;99.90
14521;DHT22;7347;50.844;4.490;2024-02-28T17:14:41;9.50;99.90
14521;DHT22;7347;50.844;4.490;2024-02-28T17:17:08;9.50;99.90
14521;DHT22;7347;50.844;4.490;2024-02-28T17:19:36;9.40;99.90
14521;DHT22;7347;50.844;4.490;2024-02-28T17:22:04;9.40;99.90
14521;DHT22;7347;50.844;4.490;2024-02-28T17:24:32;9.40;99.90
14521;DHT22;7347;50.844;4.490;2024-02-28T17:26:59;9.40;99.90
14521;DHT22;7347;50.844;4.490;2024-02-28T17:29:26;9.50;99.90
14521;DHT22;7347;50.844;4.490;2024-02-28T17:31:54;9.40;99.90
14521;DHT22;7347;50.844;4.490;2024-02-28T17:34:21;9.30;99.90
14521;DHT22;7347;50.844;4.490;2024-02-28T17:36:47;9.40;99.90
14521;DHT22;7347;50.844;4.490;2024-02-28T17:39:14;9.30;99.90
14521;DHT22;7347;50.844;4.490;2024-02-28T17:41:42;9.30;99.90
14521;DHT22;7347;50.844;4.490;2024-02-28T17:44:10;9.40;99.90
14521;DHT22;7347;50.844;4.490;2024-02-28T17:46:37;9.30;99.90
14521;DHT22;7347;50.844;4.490;2024-02-28T17:49:05;9.20;99.90
14521;DHT22;7347;50.844;4.490;2024-02-28T17:51:33;9.20;99.90
14521;DHT22;7347;50.844;4.490;2024-02-28T17:54:01;9.10;99.90
14521;DHT22;7347;50.844;4.490;2024-02-28T17:56:28;9.10;99.90
14521;DHT22;7347;50.844;4.490;2024-02-28T17:58:55;9.10;99.90
14521;DHT22;7347;50.844;4.490;2024-02-28T18:01:22;9.10;99.90
14521;DHT22;7347;50.844;4.490;2024-02-28T18:03:48;8.90;99.90
14521;DHT22;7347;50.844;4.490;2024-02-28T18:06:17;8.90;99.90
14521;DHT22;7347;50.844;4.490;2024-02-28T18:08:44;8.90;99.90
14521;DHT22;7347;50.844;4.490;2024-02-28T18:11:11;8.80;99.90
14521;DHT22;7347;50.844;4.490;2024-02-28T18:13:38;8.80;99.90
14521;DHT22;7347;50.844;4.490;2024-02-28T18:16:05;8.80;99.90
14521;DHT22;7347;50.844;4.490;2024-02-28T18:18:32;8.80;99.90
14521;DHT22;7347;50.844;4.490;2024-02-28T18:20:59;8.80;99.90
14521;DHT22;7347;50.844;4.490;2024-02-28T18:23:27;8.90;99.90
14521;DHT22;7347;50.844;4.490;2024-02-28T18:25:54;8.90;99.90
14521;DHT22;7347;50.844;4.490;2024-02-28T18:28:21;8.80;99.90
14521;DHT22;7347;50.844;4.490;2024-02-28T18:30:48;8.70;99.90
14521;DHT22;7347;50.844;4.490;2024-02-28T18:33:15;8.70;99.90
14521;DHT22;7347;50.844;4.490;2024-02-28T18:35:41;8.70;99.90
14521;DHT22;7347;50.844;4.490;2024-02-28T18:38:10;8.70;99.90
14521;DHT22;7347;50.844;4.490;2024-02-28T18:40:38;8.70;99.90
14521;DHT22;7347;50.844;4.490;2024-02-28T18:43:05;8.70;99.90
14521;DHT22;7347;50.844;4.490;2024-02-28T18:45:32;8.60;99.90
14521;DHT22;7347;50.844;4.490;2024-02-28T18:47:59;8.50;99.90
14521;DHT22;7347;50.844;4.490;2024-02-28T18:50:26;8.40;99.90
14521;DHT22;7347;50.844;4.490;2024-02-28T18:52:54;8.50;99.90
14521;DHT22;7347;50.844;4.490;2024-02-28T18:55:20;8.40;99.90
14521;DHT22;7347;50.844;4.490;2024-02-28T18:57:52;8.30;99.90
14521;DHT22;7347;50.844;4.490;2024-02-28T19:00:20;8.30;99.90
14521;DHT22;7347;50.844;4.490;2024-02-28T19:02:48;8.20;99.90
14521;DHT22;7347;50.844;4.490;2024-02-28T19:05:15;8.20;99.90
14521;DHT22;7347;50.844;4.490;2024-02-28T19:07:41;8.20;99.90
14521;DHT22;7347;50.844;4.490;2024-02-28T19:10:09;8.10;99.90
14521;DHT22;7347;50.844;4.490;2024-02-28T19:12:36;8.10;99.90
14521;DHT22;7347;50.844;4.490;2024-02-28T19:15:05;8.10;99.90
14521;DHT22;7347;50.844;4.490;2024-02-28T19:17:33;8.00;99.90
14521;DHT22;7347;50.844;4.490;2024-02-28T19:20:00;8.20;99.90
14521;DHT22;7347;50.844;4.490;2024-02-28T19:22:27;8.10;99.90
14521;DHT22;7347;50.844;4.490;2024-02-28T19:24:54;8.10;99.90
14521;DHT22;7347;50.844;4.490;2024-02-28T19:27:21;8.10;99.90
14521;DHT22;7347;50.844;4.490;2024-02-28T19:29:49;8.10;99.90
14521;DHT22;7347;50.844;4.490;2024-02-28T19:32:17;8.00;99.90
14521;DHT22;7347;50.844;4.490;2024-02-28T19:34:44;7.90;99.90
14521;DHT22;7347;50.844;4.490;2024-02-28T19:37:10;7.90;99.90
14521;DHT22;7347;50.844;4.490;2024-02-28T19:39:37;7.70;99.90
14521;DHT22;7347;50.844;4.490;2024-02-28T19:42:04;7.70;99.90
14521;DHT22;7347;50.844;4.490;2024-02-28T19:44:31;7.70;99.90
14521;DHT22;7347;50.844;4.490;2024-02-28T19:46:58;7.60;99.90
14521;DHT22;7347;50.844;4.490;2024-02-28T19:49:26;7.70;99.90
14521;DHT22;7347;50.844;4.490;2024-02-28T19:51:55;7.70;99.90
14521;DHT22;7347;50.844;4.490;2024-02-28T19:54:23;7.70;99.90
14521;DHT22;7347;50.844;4.490;2024-02-28T19:56:52;7.70;99.90
14521;DHT22;7347;50.844;4.490;2024-02-28T19:59:19;7.60;99.90
14521;DHT22;7347;50.844;4.490;2024-02-28T20:01:46;7.70;99.90
14521;DHT22;7347;50.844;4.490;2024-02-28T20:04:13;7.70;99.90
14521;DHT22;7347;50.844;4.490;2024-02-28T20:06:41;7.70;99.90
14521;DHT22;7347;50.844;4.490;2024-02-28T20:09:08;7.70;99.90
14521;DHT22;7347;50.844;4.490;2024-02-28T20:11:35;7.60;99.90
14521;DHT22;7347;50.844;4.490;2024-02-28T20:14:02;7.60;99.90
14521;DHT22;7347;50.844;4.490;2024-02-28T20:16:29;7.60;99.90
14521;DHT22;7347;50.844;4.490;2024-02-28T20:18:56;7.60;99.90
14521;DHT22;7347;50.844;4.490;2024-02-28T20:21:23;7.50;99.90
14521;DHT22;7347;50.844;4.490;2024-02-28T20:23:51;7.60;99.90
14521;DHT22;7347;50.844;4.490;2024-02-28T20:26:17;7.50;99.90
14521;DHT22;7347;50.844;4.490;2024-02-28T20:28:46;7.50;99.90
14521;DHT22;7347;50.844;4.490;2024-02-28T20:31:13;7.50;99.90
14521;DHT22;7347;50.844;4.490;2024-02-28T20:33:41;7.50;99.90
14521;DHT22;7347;50.844;4.490;2024-02-28T20:36:09;7.40;99.90
14521;DHT22;7347;50.844;4.490;2024-02-28T20:38:36;7.40;99.90
14521;DHT22;7347;50.844;4.490;2024-02-28T20:41:05;7.50;99.90
14521;DHT22;7347;50.844;4.490;2024-02-28T20:43:31;7.50;99.90
14521;DHT22;7347;50.844;4.490;2024-02-28T20:45:58;7.50;99.90
14521;DHT22;7347;50.844;4.490;2024-02-28T20:48:25;7.40;99.90
14521;DHT22;7347;50.844;4.490;2024-02-28T20:50:52;7.40;99.90
14521;DHT22;7347;50.844;4.490;2024-02-28T20:53:20;7.40;99.90
14521;DHT22;7347;50.844;4.490;2024-02-28T20:55:48;7.30;99.90
14521;DHT22;7347;50.844;4.490;2024-02-28T20:58:17;7.30;99.90
14521;DHT22;7347;50.844;4.490;2024-02-28T21:00:44;7.30;99.90
14521;DHT22;7347;50.844;4.490;2024-02-28T21:03:11;7.30;99.90
14521;DHT22;7347;50.844;4.490;2024-02-28T21:05:37;7.20;99.90
14521;DHT22;7347;50.844;4.490;2024-02-28T21:08:04;7.20;99.90
14521;DHT22;7347;50.844;4.490;2024-02-28T21:10:31;7.10;99.90
14521;DHT22;7347;50.844;4.490;2024-02-28T21:12:59;7.10;99.90
14521;DHT22;7347;50.844;4.490;2024-02-28T21:15:28;7.00;99.90
14521;DHT22;7347;50.844;4.490;2024-02-28T21:17:54;7.00;99.90
14521;DHT22;7347;50.844;4.490;2024-02-28T21:20:21;7.00;99.90
14521;DHT22;7347;50.844;4.490;2024-02-28T21:22:50;7.00;99.90
14521;DHT22;7347;50.844;4.490;2024-02-28T21:25:17;6.90;99.90
14521;DHT22;7347;50.844;4.490;2024-02-28T21:27:44;6.90;99.90
14521;DHT22;7347;50.844;4.490;2024-02-28T21:30:11;6.90;99.90
14521;DHT22;7347;50.844;4.490;2024-02-28T21:32:41;7.00;99.90
14521;DHT22;7347;50.844;4.490;2024-02-28T21:35:09;7.00;99.90
14521;DHT22;7347;50.844;4.490;2024-02-28T21:37:37;7.00;99.90
14521;DHT22;7347;50.844;4.490;2024-02-28T21:40:05;6.90;99.90
14521;DHT22;7347;50.844;4.490;2024-02-28T21:42:33;6.80;99.90
14521;DHT22;7347;50.844;4.490;2024-02-28T21:45:00;6.80;99.90
14521;DHT22;7347;50.844;4.490;2024-02-28T21:47:27;6.90;99.90
14521;DHT22;7347;50.844;4.490;2024-02-28T21:49:55;6.80;99.90
14521;DHT22;7347;50.844;4.490;2024-02-28T21:52:22;6.80;99.90
14521;DHT22;7347;50.844;4.490;2024-02-28T21:54:50;6.80;99.90
14521;DHT22;7347;50.844;4.490;2024-02-28T21:57:18;6.80;99.90
14521;DHT22;7347;50.844;4.490;2024-02-28T21:59:45;6.80;99.90
14521;DHT22;7347;50.844;4.490;2024-02-28T22:02:11;6.70;99.90
14521;DHT22;7347;50.844;4.490;2024-02-28T22:04:38;6.70;99.90
14521;DHT22;7347;50.844;4.490;2024-02-28T22:07:07;6.80;99.90
14521;DHT22;7347;50.844;4.490;2024-02-28T22:09:33;6.80;99.90
14521;DHT22;7347;50.844;4.490;2024-02-28T22:12:00;6.80;99.90
14521;DHT22;7347;50.844;4.490;2024-02-28T22:14:27;6.70;99.90
14521;DHT22;7347;50.844;4.490;2024-02-28T22:16:54;6.70;99.90
14521;DHT22;7347;50.844;4.490;2024-02-28T22:19:21;6.80;99.90
14521;DHT22;7347;50.844;4.490;2024-02-28T22:21:48;6.80;99.90
14521;DHT22;7347;50.844;4.490;2024-02-28T22:24:16;6.70;99.90
14521;DHT22;7347;50.844;4.490;2024-02-28T22:26:42;6.70;99.90
14521;DHT22;7347;50.844;4.490;2024-02-28T22:29:09;6.70;99.90
14521;DHT22;7347;50.844;4.490;2024-02-28T22:31:36;6.70;99.90
14521;DHT22;7347;50.844;4.490;2024-02-28T22:34:03;6.70;99.90
14521;DHT22;7347;50.844;4.490;2024-02-28T22:36:30;6.70;99.90
14521;DHT22;7347;50.844;4.490;2024-02-28T22:38:57;6.70;99.90
